CSC3454 ZLXN-ZWWW
Flight info
| Callsign | CSC3454 |
|---|---|
| Flight time | N/A |
| Altitude | 36100 |
| Route | ANDIM B215 IBANO G470 QTV W99 FKG B215 WUR |
| Aircraft | A319/M-SDE3FGHIRWY/LB1 |
Departure
| Time | 2026-04-30 05:48 |
|---|---|
| Airport | Xining Caojiabao International Airport (ZLXN) |
Arrival
| Time | N/A |
|---|---|
| Airport | Ürümqi Tianshan International Airport (ZWWW) |
| Time | Latitude | Longitude | Altitude | Speed | Heading |
|---|---|---|---|---|---|
| 2026-04-30 05:37 | 36.52326 | 102.04569 | 7214 ft | 0 kts | 108° |
| 2026-04-30 05:41 | 36.52329 | 102.04556 | 7215 ft | 2 kts | 111° |
| 2026-04-30 05:41 | 36.52335 | 102.04539 | 7215 ft | 2 kts | 109° |
| 2026-04-30 05:41 | 36.52340 | 102.04521 | 7215 ft | 2 kts | 110° |
| 2026-04-30 05:41 | 36.52345 | 102.04504 | 7215 ft | 2 kts | 110° |
| 2026-04-30 05:42 | 36.52348 | 102.04492 | 7215 ft | 0 kts | 110° |
| 2026-04-30 05:42 | 36.52350 | 102.04488 | 7215 ft | 0 kts | 79° |
| 2026-04-30 05:42 | 36.52349 | 102.04484 | 7215 ft | 0 kts | 75° |
| 2026-04-30 05:44 | 36.52371 | 102.04516 | 7215 ft | 13 kts | 30° |
| 2026-04-30 05:44 | 36.52485 | 102.04568 | 7216 ft | 16 kts | 19° |
| 2026-04-30 05:44 | 36.52583 | 102.04620 | 7216 ft | 11 kts | 62° |
| 2026-04-30 05:44 | 36.52562 | 102.04752 | 7216 ft | 22 kts | 109° |
| 2026-04-30 05:45 | 36.52500 | 102.04971 | 7215 ft | 28 kts | 109° |
| 2026-04-30 05:45 | 36.52440 | 102.05186 | 7215 ft | 24 kts | 109° |
| 2026-04-30 05:45 | 36.52374 | 102.05426 | 7214 ft | 32 kts | 109° |
| 2026-04-30 05:45 | 36.52329 | 102.05626 | 7213 ft | 16 kts | 70° |
| 2026-04-30 05:46 | 36.52372 | 102.05698 | 7213 ft | 8 kts | 100° |
| 2026-04-30 05:46 | 36.52350 | 102.05782 | 7213 ft | 17 kts | 109° |
| 2026-04-30 05:46 | 36.52370 | 102.05898 | 7213 ft | 14 kts | 21° |
| 2026-04-30 05:46 | 36.52460 | 102.05924 | 7214 ft | 11 kts | 349° |
| 2026-04-30 05:47 | 36.52502 | 102.05857 | 7214 ft | 3 kts | 289° |
| 2026-04-30 05:47 | 36.52506 | 102.05845 | 7214 ft | 11 kts | 289° |
| 2026-04-30 05:47 | 36.52611 | 102.05470 | 7215 ft | 80 kts | 289° |
| 2026-04-30 05:47 | 36.52869 | 102.04545 | 7218 ft | 143 kts | 288° |
| 2026-04-30 05:48 | 36.53257 | 102.03138 | 7225 ft | 198 kts | 288° |
| 2026-04-30 05:48 | 36.53722 | 102.01457 | 7716 ft | 209 kts | 288° |
| 2026-04-30 05:48 | 36.54170 | 101.99772 | 8572 ft | 206 kts | 288° |
| 2026-04-30 05:48 | 36.54696 | 101.98186 | 9264 ft | 201 kts | 307° |
| 2026-04-30 05:49 | 36.55837 | 101.97210 | 9527 ft | 206 kts | 349° |
| 2026-04-30 05:49 | 36.57276 | 101.97264 | 9794 ft | 211 kts | 21° |
| 2026-04-30 05:49 | 36.58496 | 101.98270 | 10053 ft | 217 kts | 53° |
| 2026-04-30 05:49 | 36.59159 | 101.99962 | 10314 ft | 224 kts | 74° |
| 2026-04-30 05:50 | 36.59795 | 102.01797 | 10451 ft | 244 kts | 51° |
| 2026-04-30 05:50 | 36.61194 | 102.03084 | 10757 ft | 258 kts | 28° |
| 2026-04-30 05:50 | 36.62870 | 102.04058 | 11043 ft | 274 kts | 26° |
| 2026-04-30 05:50 | 36.64657 | 102.05029 | 11319 ft | 289 kts | 25° |
| 2026-04-30 05:51 | 36.66551 | 102.06046 | 11595 ft | 304 kts | 25° |
| 2026-04-30 05:51 | 36.68556 | 102.07124 | 11868 ft | 319 kts | 25° |
| 2026-04-30 05:51 | 36.70629 | 102.08240 | 12137 ft | 333 kts | 25° |
| 2026-04-30 05:51 | 36.72816 | 102.09421 | 12401 ft | 348 kts | 25° |
| 2026-04-30 05:52 | 36.75071 | 102.10638 | 12697 ft | 360 kts | 25° |
| 2026-04-30 05:52 | 36.77369 | 102.11879 | 13205 ft | 365 kts | 25° |
| 2026-04-30 05:52 | 36.79704 | 102.13142 | 13809 ft | 367 kts | 25° |
| 2026-04-30 05:52 | 36.82061 | 102.14422 | 14384 ft | 369 kts | 25° |
| 2026-04-30 05:53 | 36.84430 | 102.15710 | 14899 ft | 373 kts | 25° |
| 2026-04-30 05:53 | 36.86789 | 102.16993 | 15390 ft | 377 kts | 25° |
| 2026-04-30 05:53 | 36.89202 | 102.18308 | 15911 ft | 380 kts | 25° |
| 2026-04-30 05:53 | 36.91662 | 102.19648 | 16416 ft | 384 kts | 24° |
| 2026-04-30 05:54 | 36.94120 | 102.20987 | 16895 ft | 389 kts | 24° |
| 2026-04-30 05:54 | 36.96589 | 102.22335 | 17392 ft | 392 kts | 24° |
| 2026-04-30 05:54 | 36.99085 | 102.23698 | 17848 ft | 397 kts | 24° |
| 2026-04-30 05:54 | 37.01652 | 102.25103 | 18301 ft | 402 kts | 23° |
| 2026-04-30 05:55 | 37.04208 | 102.26503 | 18771 ft | 405 kts | 23° |
| 2026-04-30 05:55 | 37.06803 | 102.27926 | 19263 ft | 408 kts | 22° |
| 2026-04-30 05:55 | 37.09390 | 102.29344 | 19739 ft | 411 kts | 22° |
| 2026-04-30 05:55 | 37.12028 | 102.30788 | 20171 ft | 415 kts | 21° |
| 2026-04-30 05:56 | 37.14669 | 102.32229 | 20590 ft | 418 kts | 21° |
| 2026-04-30 05:56 | 37.17338 | 102.33691 | 21030 ft | 421 kts | 20° |
| 2026-04-30 05:56 | 37.20031 | 102.35171 | 21475 ft | 424 kts | 20° |
| 2026-04-30 05:56 | 37.22747 | 102.36665 | 21905 ft | 426 kts | 20° |
| 2026-04-30 05:57 | 37.25451 | 102.38151 | 22309 ft | 428 kts | 19° |
| 2026-04-30 05:57 | 37.28273 | 102.39339 | 22622 ft | 424 kts | 4° |
| 2026-04-30 05:57 | 37.31141 | 102.39346 | 22998 ft | 413 kts | 344° |
| 2026-04-30 05:57 | 37.33839 | 102.38206 | 23443 ft | 401 kts | 326° |
| 2026-04-30 05:58 | 37.36014 | 102.36178 | 23872 ft | 391 kts | 309° |
| 2026-04-30 05:58 | 37.37595 | 102.33463 | 24258 ft | 386 kts | 294° |
| 2026-04-30 05:58 | 37.38504 | 102.30287 | 24506 ft | 388 kts | 283° |
| 2026-04-30 05:58 | 37.39157 | 102.26983 | 24653 ft | 395 kts | 282° |
| 2026-04-30 05:59 | 37.39811 | 102.23604 | 24800 ft | 403 kts | 282° |
| 2026-04-30 05:59 | 37.40476 | 102.20171 | 25015 ft | 408 kts | 282° |
| 2026-04-30 05:59 | 37.41147 | 102.16714 | 25371 ft | 409 kts | 282° |
| 2026-04-30 05:59 | 37.41828 | 102.13219 | 25723 ft | 411 kts | 283° |
| 2026-04-30 06:00 | 37.42504 | 102.09744 | 26064 ft | 413 kts | 283° |
| 2026-04-30 06:00 | 37.43179 | 102.06264 | 26432 ft | 413 kts | 283° |
| 2026-04-30 06:00 | 37.43864 | 102.02728 | 26784 ft | 415 kts | 283° |
| 2026-04-30 06:00 | 37.44535 | 101.99252 | 27219 ft | 413 kts | 283° |
| 2026-04-30 06:01 | 37.45209 | 101.95757 | 27725 ft | 410 kts | 283° |
| 2026-04-30 06:01 | 37.45881 | 101.92275 | 28204 ft | 408 kts | 283° |
| 2026-04-30 06:01 | 37.46543 | 101.88839 | 28622 ft | 407 kts | 284° |
| 2026-04-30 06:01 | 37.47207 | 101.85396 | 29032 ft | 405 kts | 283° |
| 2026-04-30 06:02 | 37.47865 | 101.81982 | 29459 ft | 403 kts | 284° |
| 2026-04-30 06:02 | 37.48521 | 101.78565 | 29902 ft | 401 kts | 283° |
| 2026-04-30 06:02 | 37.49211 | 101.75163 | 30321 ft | 400 kts | 285° |
| 2026-04-30 06:02 | 37.50010 | 101.71845 | 30729 ft | 398 kts | 287° |
| 2026-04-30 06:03 | 37.50928 | 101.68612 | 31204 ft | 395 kts | 290° |
| 2026-04-30 06:03 | 37.51974 | 101.65420 | 31679 ft | 391 kts | 292° |
| 2026-04-30 06:03 | 37.53120 | 101.62338 | 32093 ft | 389 kts | 294° |
| 2026-04-30 06:03 | 37.54358 | 101.59358 | 32505 ft | 386 kts | 296° |
| 2026-04-30 06:04 | 37.55615 | 101.56400 | 32908 ft | 384 kts | 296° |
| 2026-04-30 06:04 | 37.56869 | 101.53452 | 33244 ft | 382 kts | 295° |
| 2026-04-30 06:04 | 37.58131 | 101.50488 | 33552 ft | 381 kts | 295° |
| 2026-04-30 06:05 | 37.60603 | 101.44675 | 34246 ft | 378 kts | 295° |
| 2026-04-30 06:05 | 37.61837 | 101.41769 | 34585 ft | 376 kts | 295° |
| 2026-04-30 06:05 | 37.63080 | 101.38843 | 34877 ft | 375 kts | 294° |
| 2026-04-30 06:05 | 37.64299 | 101.35964 | 35082 ft | 376 kts | 295° |
| 2026-04-30 06:06 | 37.65527 | 101.33067 | 35308 ft | 377 kts | 294° |
| 2026-04-30 06:06 | 37.66766 | 101.30131 | 35559 ft | 377 kts | 294° |
| 2026-04-30 06:06 | 37.67981 | 101.27244 | 35811 ft | 376 kts | 294° |
| 2026-04-30 06:06 | 37.69216 | 101.24323 | 36038 ft | 376 kts | 294° |
| 2026-04-30 06:07 | 37.70447 | 101.21409 | 36235 ft | 377 kts | 294° |
| 2026-04-30 06:07 | 37.71666 | 101.18521 | 36362 ft | 378 kts | 294° |
| 2026-04-30 06:07 | 37.72905 | 101.15574 | 36433 ft | 380 kts | 294° |
| 2026-04-30 06:08 | 37.75377 | 101.09708 | 36450 ft | 379 kts | 294° |
| 2026-04-30 06:08 | 37.77864 | 101.03809 | 36454 ft | 380 kts | 294° |
| 2026-04-30 06:09 | 37.80321 | 100.97955 | 36468 ft | 380 kts | 294° |
| 2026-04-30 06:09 | 37.82794 | 100.92053 | 36459 ft | 379 kts | 294° |
| 2026-04-30 06:10 | 37.85354 | 100.86239 | 36465 ft | 380 kts | 296° |
| 2026-04-30 06:10 | 37.87963 | 100.80402 | 36464 ft | 380 kts | 295° |
| 2026-04-30 06:11 | 37.90547 | 100.74612 | 36473 ft | 381 kts | 295° |
| 2026-04-30 06:11 | 37.93144 | 100.68783 | 36486 ft | 382 kts | 295° |
| 2026-04-30 06:12 | 37.95735 | 100.62947 | 36490 ft | 381 kts | 295° |
| 2026-04-30 06:12 | 37.98320 | 100.57108 | 36481 ft | 381 kts | 295° |
| 2026-04-30 06:13 | 38.00893 | 100.51296 | 36475 ft | 381 kts | 295° |
| 2026-04-30 06:13 | 38.03474 | 100.45453 | 36470 ft | 381 kts | 295° |
| 2026-04-30 06:14 | 38.06058 | 100.39590 | 36459 ft | 381 kts | 295° |
| 2026-04-30 06:14 | 38.08627 | 100.33746 | 36472 ft | 381 kts | 294° |
| 2026-04-30 06:15 | 38.11187 | 100.27911 | 36453 ft | 380 kts | 294° |
| 2026-04-30 06:15 | 38.13780 | 100.22041 | 36441 ft | 381 kts | 294° |
| 2026-04-30 06:16 | 38.16350 | 100.16198 | 36448 ft | 382 kts | 294° |
| 2026-04-30 06:16 | 38.18934 | 100.10300 | 36450 ft | 382 kts | 294° |
| 2026-04-30 06:17 | 38.21492 | 100.04430 | 36434 ft | 382 kts | 294° |
| 2026-04-30 06:17 | 38.24065 | 99.98526 | 36458 ft | 381 kts | 294° |
| 2026-04-30 06:18 | 38.26609 | 99.92667 | 36437 ft | 381 kts | 294° |
| 2026-04-30 06:18 | 38.29159 | 99.86792 | 36419 ft | 382 kts | 293° |
| 2026-04-30 06:19 | 38.31714 | 99.80885 | 36432 ft | 383 kts | 293° |
| 2026-04-30 06:19 | 38.34266 | 99.74970 | 36442 ft | 382 kts | 294° |
| 2026-04-30 06:20 | 38.36827 | 99.69027 | 36452 ft | 382 kts | 293° |
| 2026-04-30 06:20 | 38.39384 | 99.63092 | 36434 ft | 384 kts | 293° |
| 2026-04-30 06:21 | 38.41937 | 99.57144 | 36435 ft | 383 kts | 294° |
| 2026-04-30 06:21 | 38.44488 | 99.51193 | 36428 ft | 383 kts | 294° |
| 2026-04-30 06:22 | 38.47036 | 99.45244 | 36450 ft | 385 kts | 294° |
| 2026-04-30 06:22 | 38.49610 | 99.39223 | 36445 ft | 386 kts | 293° |
| 2026-04-30 06:23 | 38.52145 | 99.33263 | 36442 ft | 385 kts | 293° |
| 2026-04-30 06:23 | 38.54702 | 99.27234 | 36428 ft | 386 kts | 293° |
| 2026-04-30 06:24 | 38.57237 | 99.21252 | 36418 ft | 387 kts | 293° |
| 2026-04-30 06:24 | 38.59802 | 99.15194 | 36434 ft | 386 kts | 293° |
| 2026-04-30 06:25 | 38.62351 | 99.09174 | 36458 ft | 387 kts | 292° |
| 2026-04-30 06:25 | 38.64896 | 99.03139 | 36471 ft | 387 kts | 293° |
| 2026-04-30 06:26 | 38.67437 | 98.97110 | 36474 ft | 387 kts | 292° |
| 2026-04-30 06:26 | 38.69982 | 98.91058 | 36469 ft | 386 kts | 292° |
| 2026-04-30 06:27 | 38.72520 | 98.85014 | 36442 ft | 387 kts | 293° |
| 2026-04-30 06:27 | 38.75060 | 98.78955 | 36417 ft | 388 kts | 292° |
| 2026-04-30 06:28 | 38.77596 | 98.72887 | 36413 ft | 386 kts | 293° |
| 2026-04-30 06:28 | 38.80127 | 98.66827 | 36416 ft | 388 kts | 292° |
| 2026-04-30 06:29 | 38.82676 | 98.60700 | 36441 ft | 389 kts | 293° |
| 2026-04-30 06:29 | 38.85194 | 98.54644 | 36467 ft | 387 kts | 293° |
| 2026-04-30 06:30 | 38.87726 | 98.48550 | 36473 ft | 388 kts | 292° |
| 2026-04-30 06:30 | 38.90252 | 98.42448 | 36446 ft | 388 kts | 292° |
| 2026-04-30 06:31 | 38.92763 | 98.36359 | 36433 ft | 387 kts | 292° |
| 2026-04-30 06:31 | 38.95282 | 98.30249 | 36416 ft | 387 kts | 292° |
| 2026-04-30 06:32 | 38.97797 | 98.24126 | 36389 ft | 386 kts | 292° |
| 2026-04-30 06:32 | 39.00289 | 98.18053 | 36387 ft | 386 kts | 291° |
| 2026-04-30 06:33 | 39.02786 | 98.11958 | 36391 ft | 385 kts | 292° |
| 2026-04-30 06:33 | 39.05273 | 98.05878 | 36406 ft | 387 kts | 292° |
| 2026-04-30 06:34 | 39.07772 | 97.99763 | 36416 ft | 387 kts | 292° |
| 2026-04-30 06:34 | 39.10279 | 97.93619 | 36411 ft | 388 kts | 291° |
| 2026-04-30 06:35 | 39.12792 | 97.87505 | 36402 ft | 388 kts | 291° |
| 2026-04-30 06:35 | 39.15297 | 97.81383 | 36379 ft | 387 kts | 292° |
| 2026-04-30 06:36 | 39.17792 | 97.75243 | 36352 ft | 388 kts | 291° |
| 2026-04-30 06:36 | 39.20289 | 97.69074 | 36343 ft | 388 kts | 291° |
| 2026-04-30 06:37 | 39.22769 | 97.62929 | 36337 ft | 389 kts | 291° |
| 2026-04-30 06:37 | 39.25278 | 97.56715 | 36331 ft | 389 kts | 291° |
| 2026-04-30 06:38 | 39.27766 | 97.50546 | 36340 ft | 388 kts | 291° |
| 2026-04-30 06:38 | 39.30252 | 97.44375 | 36349 ft | 390 kts | 291° |
| 2026-04-30 06:39 | 39.32724 | 97.38219 | 36350 ft | 389 kts | 291° |
| 2026-04-30 06:39 | 39.35208 | 97.32026 | 36363 ft | 389 kts | 290° |
| 2026-04-30 06:40 | 39.37682 | 97.25829 | 36358 ft | 388 kts | 291° |
| 2026-04-30 06:40 | 39.40151 | 97.19644 | 36351 ft | 388 kts | 291° |
| 2026-04-30 06:41 | 39.42621 | 97.13454 | 36342 ft | 389 kts | 291° |
| 2026-04-30 06:41 | 39.45092 | 97.07249 | 36348 ft | 390 kts | 290° |
| 2026-04-30 06:42 | 39.47556 | 97.01052 | 36342 ft | 390 kts | 290° |
| 2026-04-30 06:42 | 39.50042 | 96.94842 | 36346 ft | 389 kts | 291° |
| 2026-04-30 06:43 | 39.52526 | 96.88638 | 36327 ft | 390 kts | 291° |
| 2026-04-30 06:43 | 39.55018 | 96.82410 | 36320 ft | 390 kts | 290° |
| 2026-04-30 06:44 | 39.57493 | 96.76206 | 36314 ft | 388 kts | 290° |
| 2026-04-30 06:44 | 39.59963 | 96.70003 | 36307 ft | 390 kts | 290° |
| 2026-04-30 06:45 | 39.62443 | 96.63765 | 36312 ft | 389 kts | 290° |
| 2026-04-30 06:45 | 39.64903 | 96.57515 | 36301 ft | 390 kts | 290° |
| 2026-04-30 06:46 | 39.67358 | 96.51269 | 36286 ft | 390 kts | 290° |
| 2026-04-30 06:46 | 39.69798 | 96.45049 | 36292 ft | 390 kts | 290° |
| 2026-04-30 06:47 | 39.72255 | 96.38770 | 36275 ft | 390 kts | 290° |
| 2026-04-30 06:47 | 39.74700 | 96.32516 | 36266 ft | 389 kts | 289° |
| 2026-04-30 06:48 | 39.77127 | 96.26280 | 36268 ft | 390 kts | 289° |
| 2026-04-30 06:48 | 39.79558 | 96.20030 | 36252 ft | 389 kts | 289° |
| 2026-04-30 06:49 | 39.81988 | 96.13776 | 36248 ft | 388 kts | 290° |
| 2026-04-30 06:49 | 39.84425 | 96.07502 | 36250 ft | 389 kts | 289° |
| 2026-04-30 06:50 | 39.86845 | 96.01246 | 36237 ft | 390 kts | 290° |
| 2026-04-30 06:50 | 39.89270 | 95.94973 | 36212 ft | 389 kts | 289° |
| 2026-04-30 06:51 | 39.91701 | 95.88671 | 36209 ft | 388 kts | 289° |
| 2026-04-30 06:51 | 39.94112 | 95.82404 | 36206 ft | 388 kts | 289° |
| 2026-04-30 06:52 | 39.96523 | 95.76131 | 36186 ft | 389 kts | 289° |
| 2026-04-30 06:52 | 39.98924 | 95.69856 | 36186 ft | 389 kts | 289° |
| 2026-04-30 06:53 | 40.01328 | 95.63567 | 36182 ft | 388 kts | 289° |
| 2026-04-30 06:53 | 40.03738 | 95.57257 | 36181 ft | 390 kts | 289° |
| 2026-04-30 06:54 | 40.06148 | 95.50932 | 36173 ft | 388 kts | 289° |
| 2026-04-30 06:54 | 40.08550 | 95.44613 | 36172 ft | 388 kts | 289° |
| 2026-04-30 06:55 | 40.10950 | 95.38306 | 36169 ft | 390 kts | 289° |
| 2026-04-30 06:55 | 40.13359 | 95.32005 | 36171 ft | 388 kts | 288° |
| 2026-04-30 06:56 | 40.15750 | 95.25697 | 36165 ft | 389 kts | 288° |
| 2026-04-30 06:56 | 40.18132 | 95.19373 | 36166 ft | 389 kts | 288° |
| 2026-04-30 06:57 | 40.20522 | 95.13030 | 36166 ft | 388 kts | 288° |
| 2026-04-30 06:57 | 40.22913 | 95.06753 | 36166 ft | 387 kts | 288° |
| 2026-04-30 06:58 | 40.25312 | 95.00452 | 36159 ft | 388 kts | 288° |
| 2026-04-30 06:58 | 40.27708 | 94.94138 | 36161 ft | 386 kts | 288° |
| 2026-04-30 06:59 | 40.30308 | 94.87941 | 36160 ft | 394 kts | 293° |
| 2026-04-30 06:59 | 40.33398 | 94.81979 | 36156 ft | 397 kts | 298° |
| 2026-04-30 07:00 | 40.36800 | 94.76292 | 36153 ft | 398 kts | 299° |
| 2026-04-30 07:00 | 40.40227 | 94.70628 | 36149 ft | 400 kts | 299° |
| 2026-04-30 07:01 | 40.43674 | 94.64922 | 36148 ft | 400 kts | 299° |
| 2026-04-30 07:01 | 40.47115 | 94.59219 | 36145 ft | 399 kts | 299° |
| 2026-04-30 07:02 | 40.50552 | 94.53506 | 36142 ft | 398 kts | 299° |
| 2026-04-30 07:02 | 40.53972 | 94.47816 | 36144 ft | 398 kts | 299° |
| 2026-04-30 07:03 | 40.57397 | 94.42108 | 36145 ft | 397 kts | 299° |
| 2026-04-30 07:03 | 40.60796 | 94.36433 | 36147 ft | 396 kts | 299° |
| 2026-04-30 07:04 | 40.64193 | 94.30737 | 36146 ft | 397 kts | 298° |
| 2026-04-30 07:04 | 40.67594 | 94.25016 | 36147 ft | 398 kts | 298° |
| 2026-04-30 07:05 | 40.72689 | 94.16455 | 36148 ft | 398 kts | 298° |
| 2026-04-30 07:05 | 40.76083 | 94.10738 | 36143 ft | 397 kts | 298° |
| 2026-04-30 07:06 | 40.79490 | 94.04995 | 36139 ft | 399 kts | 298° |
| 2026-04-30 07:06 | 40.82891 | 93.99254 | 36141 ft | 397 kts | 299° |
| 2026-04-30 07:07 | 40.86302 | 93.93490 | 36139 ft | 398 kts | 299° |
| 2026-04-30 07:07 | 40.89687 | 93.87753 | 36146 ft | 397 kts | 299° |
| 2026-04-30 07:08 | 40.93150 | 93.82105 | 36146 ft | 400 kts | 301° |
| 2026-04-30 07:08 | 40.96776 | 93.76471 | 36140 ft | 402 kts | 302° |
| 2026-04-30 07:09 | 41.00364 | 93.70901 | 36139 ft | 401 kts | 302° |
| 2026-04-30 07:09 | 41.03974 | 93.65296 | 36140 ft | 401 kts | 302° |
| 2026-04-30 07:10 | 41.07599 | 93.59656 | 36148 ft | 402 kts | 302° |
| 2026-04-30 07:10 | 41.11195 | 93.54059 | 36155 ft | 402 kts | 302° |
| 2026-04-30 07:11 | 41.13032 | 93.51218 | 35907 ft | 402 kts | 302° |
| 2026-04-30 07:11 | 41.14834 | 93.48421 | 36066 ft | 403 kts | 302° |
| 2026-04-30 07:11 | 41.18461 | 93.42779 | 36128 ft | 405 kts | 302° |
| 2026-04-30 07:12 | 41.22116 | 93.37056 | 36141 ft | 406 kts | 302° |
| 2026-04-30 07:12 | 41.25737 | 93.31361 | 36139 ft | 405 kts | 302° |
| 2026-04-30 07:13 | 41.29359 | 93.25652 | 36140 ft | 405 kts | 302° |
| 2026-04-30 07:13 | 41.32978 | 93.19938 | 36141 ft | 406 kts | 303° |
| 2026-04-30 07:14 | 41.36615 | 93.14193 | 36141 ft | 405 kts | 303° |
| 2026-04-30 07:14 | 41.40225 | 93.08478 | 36139 ft | 406 kts | 303° |
| 2026-04-30 07:15 | 41.43858 | 93.02718 | 36126 ft | 406 kts | 303° |
| 2026-04-30 07:15 | 41.47481 | 92.96960 | 36129 ft | 406 kts | 303° |
| 2026-04-30 07:16 | 41.51107 | 92.91198 | 36129 ft | 406 kts | 303° |
| 2026-04-30 07:16 | 41.54717 | 92.85442 | 36129 ft | 406 kts | 303° |
| 2026-04-30 07:17 | 41.58329 | 92.79670 | 36124 ft | 407 kts | 304° |
| 2026-04-30 07:18 | 41.63759 | 92.70980 | 36128 ft | 407 kts | 304° |
| 2026-04-30 07:18 | 41.67381 | 92.65169 | 36128 ft | 407 kts | 304° |
| 2026-04-30 07:19 | 41.70980 | 92.59380 | 36130 ft | 407 kts | 304° |
| 2026-04-30 07:19 | 41.74601 | 92.53548 | 36129 ft | 408 kts | 304° |
| 2026-04-30 07:20 | 41.78208 | 92.47725 | 36124 ft | 408 kts | 304° |
| 2026-04-30 07:20 | 41.81823 | 92.41878 | 36128 ft | 408 kts | 304° |
| 2026-04-30 07:21 | 41.85411 | 92.36066 | 36124 ft | 407 kts | 305° |
| 2026-04-30 07:21 | 41.89014 | 92.30197 | 36125 ft | 407 kts | 304° |
| 2026-04-30 07:22 | 41.94383 | 92.21445 | 36132 ft | 406 kts | 304° |
| 2026-04-30 07:22 | 41.97970 | 92.15591 | 36130 ft | 406 kts | 305° |
| 2026-04-30 07:23 | 42.01556 | 92.09732 | 36136 ft | 407 kts | 304° |
| 2026-04-30 07:23 | 42.05145 | 92.03860 | 36120 ft | 407 kts | 305° |
| 2026-04-30 07:24 | 42.08724 | 91.97997 | 36132 ft | 408 kts | 305° |
| 2026-04-30 07:24 | 42.12314 | 91.92136 | 36131 ft | 408 kts | 305° |
| 2026-04-30 07:25 | 42.15919 | 91.86233 | 36132 ft | 409 kts | 305° |
| 2026-04-30 07:25 | 42.19645 | 91.80424 | 36133 ft | 410 kts | 309° |
| 2026-04-30 07:26 | 42.23768 | 91.75115 | 36135 ft | 414 kts | 315° |
| 2026-04-30 07:26 | 42.28316 | 91.70336 | 36144 ft | 418 kts | 320° |
| 2026-04-30 07:27 | 42.33243 | 91.66088 | 36138 ft | 421 kts | 323° |
| 2026-04-30 07:27 | 42.38238 | 91.61995 | 36129 ft | 422 kts | 324° |
| 2026-04-30 07:28 | 42.43250 | 91.57887 | 36120 ft | 422 kts | 324° |
| 2026-04-30 07:28 | 42.48260 | 91.53773 | 36115 ft | 422 kts | 324° |
| 2026-04-30 07:29 | 42.53257 | 91.49660 | 36122 ft | 422 kts | 324° |
| 2026-04-30 07:29 | 42.58268 | 91.45525 | 36122 ft | 422 kts | 324° |
| 2026-04-30 07:30 | 42.65762 | 91.39326 | 36106 ft | 422 kts | 324° |
| 2026-04-30 07:31 | 42.70771 | 91.35175 | 36091 ft | 423 kts | 324° |
| 2026-04-30 07:31 | 42.75767 | 91.31010 | 36084 ft | 423 kts | 324° |
| 2026-04-30 07:32 | 42.80783 | 91.26823 | 36076 ft | 423 kts | 324° |
| 2026-04-30 07:32 | 42.85712 | 91.22489 | 36084 ft | 420 kts | 321° |
| 2026-04-30 07:33 | 42.90262 | 91.17548 | 36071 ft | 418 kts | 315° |
| 2026-04-30 07:33 | 42.94436 | 91.12096 | 36071 ft | 419 kts | 313° |
| 2026-04-30 07:34 | 42.98565 | 91.06491 | 36090 ft | 419 kts | 312° |
| 2026-04-30 07:34 | 43.02665 | 91.00910 | 36076 ft | 420 kts | 313° |
| 2026-04-30 07:35 | 43.06787 | 90.95287 | 36096 ft | 419 kts | 313° |
| 2026-04-30 07:35 | 43.10891 | 90.89687 | 36106 ft | 418 kts | 313° |
| 2026-04-30 07:36 | 43.15037 | 90.84052 | 36131 ft | 419 kts | 313° |
| 2026-04-30 07:36 | 43.19122 | 90.78474 | 36136 ft | 418 kts | 313° |
| 2026-04-30 07:37 | 43.23243 | 90.72821 | 36157 ft | 418 kts | 313° |
| 2026-04-30 07:37 | 43.27311 | 90.67223 | 36171 ft | 418 kts | 313° |
| 2026-04-30 07:38 | 43.31396 | 90.61591 | 36170 ft | 418 kts | 314° |
| 2026-04-30 07:38 | 43.35506 | 90.55913 | 36149 ft | 418 kts | 313° |
| 2026-04-30 07:39 | 43.39526 | 90.50198 | 36126 ft | 418 kts | 311° |
| 2026-04-30 07:39 | 43.43435 | 90.44325 | 36103 ft | 418 kts | 312° |
| 2026-04-30 07:40 | 43.47351 | 90.38448 | 36095 ft | 417 kts | 311° |
| 2026-04-30 07:40 | 43.51274 | 90.32571 | 36086 ft | 417 kts | 311° |
| 2026-04-30 07:41 | 43.55169 | 90.26707 | 36096 ft | 417 kts | 311° |
| 2026-04-30 07:41 | 43.59076 | 90.20836 | 36128 ft | 417 kts | 311° |
| 2026-04-30 07:42 | 43.62993 | 90.14957 | 36160 ft | 417 kts | 311° |
| 2026-04-30 07:42 | 43.66910 | 90.09058 | 36180 ft | 417 kts | 311° |
| 2026-04-30 07:43 | 43.70830 | 90.03162 | 36206 ft | 417 kts | 312° |
| 2026-04-30 07:43 | 43.74748 | 89.97298 | 36226 ft | 417 kts | 312° |
| 2026-04-30 07:44 | 43.78687 | 89.91399 | 36222 ft | 417 kts | 312° |
| 2026-04-30 07:44 | 43.82614 | 89.85508 | 36246 ft | 417 kts | 312° |
| 2026-04-30 07:45 | 43.86523 | 89.79636 | 36249 ft | 417 kts | 312° |
| 2026-04-30 07:45 | 43.90441 | 89.73734 | 36247 ft | 418 kts | 312° |
| 2026-04-30 07:46 | 43.94208 | 89.67625 | 36255 ft | 417 kts | 306° |
| 2026-04-30 07:46 | 43.97206 | 89.60764 | 36268 ft | 418 kts | 297° |
| 2026-04-30 07:47 | 43.99330 | 89.53259 | 36278 ft | 420 kts | 288° |
| 2026-04-30 07:47 | 44.00551 | 89.45346 | 36271 ft | 422 kts | 282° |
| 2026-04-30 07:48 | 44.01487 | 89.37321 | 36263 ft | 422 kts | 282° |
| 2026-04-30 07:48 | 44.02406 | 89.29290 | 36282 ft | 423 kts | 281° |
| 2026-04-30 07:49 | 44.03323 | 89.21259 | 36275 ft | 423 kts | 281° |
| 2026-04-30 07:49 | 44.04242 | 89.13215 | 36280 ft | 422 kts | 282° |
| 2026-04-30 07:50 | 44.05150 | 89.05226 | 36265 ft | 422 kts | 281° |
| 2026-04-30 07:50 | 44.06069 | 88.97156 | 36267 ft | 423 kts | 283° |
| 2026-04-30 07:51 | 44.07650 | 88.89372 | 36281 ft | 419 kts | 293° |
| 2026-04-30 07:51 | 44.10253 | 88.82184 | 36278 ft | 418 kts | 303° |
| 2026-04-30 07:52 | 44.13812 | 88.75819 | 36271 ft | 417 kts | 314° |
| 2026-04-30 07:52 | 44.17912 | 88.70188 | 36274 ft | 419 kts | 316° |
| 2026-04-30 07:53 | 44.22091 | 88.64562 | 36275 ft | 419 kts | 316° |
| 2026-04-30 07:53 | 44.26262 | 88.58905 | 36266 ft | 419 kts | 317° |
| 2026-04-30 07:54 | 44.30817 | 88.53951 | 36259 ft | 402 kts | 327° |
| 2026-04-30 07:54 | 44.33165 | 88.52047 | 36263 ft | 387 kts | 332° |
| 2026-04-30 07:54 | 44.35574 | 88.50462 | 36255 ft | 375 kts | 336° |
| 2026-04-30 07:55 | 44.40346 | 88.47686 | 36259 ft | 373 kts | 335° |
| 2026-04-30 07:55 | 44.44917 | 88.44323 | 36263 ft | 373 kts | 326° |
| 2026-04-30 07:56 | 44.49029 | 88.39945 | 36270 ft | 372 kts | 319° |
| 2026-04-30 07:56 | 44.52679 | 88.34819 | 36262 ft | 374 kts | 311° |
| 2026-04-30 07:57 | 44.55747 | 88.28927 | 36265 ft | 376 kts | 303° |
| 2026-04-30 07:57 | 44.58243 | 88.22533 | 36272 ft | 377 kts | 295° |
| 2026-04-30 07:58 | 44.59954 | 88.15559 | 36272 ft | 380 kts | 289° |
| 2026-04-30 07:58 | 44.61043 | 88.08349 | 36269 ft | 384 kts | 278° |
| 2026-04-30 07:59 | 44.61251 | 88.00859 | 36266 ft | 386 kts | 274° |
| 2026-04-30 07:59 | 44.60621 | 87.93353 | 36266 ft | 391 kts | 262° |
| 2026-04-30 08:00 | 44.58219 | 87.82404 | 36267 ft | 399 kts | 248° |
| 2026-04-30 08:00 | 44.56751 | 87.79073 | 36238 ft | 407 kts | 231° |
| 2026-04-30 08:00 | 44.54506 | 87.76701 | 36253 ft | 417 kts | 208° |
| 2026-04-30 08:01 | 44.51684 | 87.75662 | 36255 ft | 426 kts | 185° |
| 2026-04-30 08:01 | 44.48760 | 87.76180 | 36258 ft | 431 kts | 161° |
| 2026-04-30 08:01 | 44.46140 | 87.78198 | 36263 ft | 433 kts | 138° |
| 2026-04-30 08:01 | 44.44199 | 87.81339 | 36287 ft | 432 kts | 123° |
| 2026-04-30 08:02 | 44.40293 | 87.87811 | 36272 ft | 437 kts | 137° |
| 2026-04-30 08:02 | 44.37970 | 87.90542 | 36275 ft | 438 kts | 143° |
| 2026-04-30 08:03 | 44.27969 | 88.00230 | 36274 ft | 439 kts | 146° |
| 2026-04-30 08:03 | 44.25392 | 88.02389 | 36244 ft | 433 kts | 160° |
| 2026-04-30 08:04 | 44.22489 | 88.03275 | 36251 ft | 421 kts | 184° |
| 2026-04-30 08:04 | 44.19671 | 88.02585 | 36270 ft | 407 kts | 208° |
| 2026-04-30 08:04 | 44.17355 | 88.00500 | 36292 ft | 394 kts | 230° |
| 2026-04-30 08:04 | 44.15746 | 87.97555 | 36284 ft | 384 kts | 247° |
| 2026-04-30 08:05 | 44.14579 | 87.94177 | 36297 ft | 385 kts | 249° |
| 2026-04-30 08:05 | 44.12106 | 87.87587 | 36297 ft | 390 kts | 244° |
| 2026-04-30 08:06 | 44.09239 | 87.81151 | 36292 ft | 391 kts | 242° |
| 2026-04-30 08:06 | 44.06292 | 87.74852 | 36292 ft | 391 kts | 244° |
| 2026-04-30 08:06 | 44.05138 | 87.71468 | 36289 ft | 382 kts | 256° |
| 2026-04-30 08:07 | 44.04363 | 87.67958 | 36296 ft | 382 kts | 258° |
| 2026-04-30 08:07 | 44.02691 | 87.61026 | 36270 ft | 388 kts | 242° |
| 2026-04-30 08:07 | 44.00840 | 87.58250 | 36281 ft | 399 kts | 218° |
| 2026-04-30 08:08 | 43.98301 | 87.56679 | 36284 ft | 410 kts | 195° |
| 2026-04-30 08:08 | 43.92587 | 87.55791 | 36271 ft | 412 kts | 201° |
| 2026-04-30 08:08 | 43.89955 | 87.54288 | 36296 ft | 405 kts | 213° |
| 2026-04-30 08:09 | 43.87507 | 87.52445 | 36304 ft | 404 kts | 215° |
| 2026-04-30 08:09 | 43.82639 | 87.48623 | 36305 ft | 404 kts | 215° |
| 2026-04-30 08:10 | 43.78319 | 87.44004 | 36285 ft | 383 kts | 245° |
| 2026-04-30 08:10 | 43.77414 | 87.40662 | 36298 ft | 368 kts | 267° |
| 2026-04-30 08:10 | 43.77200 | 87.37129 | 36325 ft | 370 kts | 268° |
| 2026-04-30 08:11 | 43.76270 | 87.30115 | 36308 ft | 377 kts | 259° |
| 2026-04-30 08:11 | 43.75278 | 87.23060 | 36297 ft | 367 kts | 280° |
| 2026-04-30 08:11 | 43.76040 | 87.19778 | 36309 ft | 360 kts | 303° |
| 2026-04-30 08:12 | 43.77740 | 87.17306 | 36314 ft | 359 kts | 327° |
| 2026-04-30 08:12 | 43.80077 | 87.16087 | 36304 ft | 360 kts | 351° |
| 2026-04-30 08:12 | 43.82549 | 87.16402 | 36299 ft | 363 kts | 16° |
| 2026-04-30 08:12 | 43.84723 | 87.18213 | 36300 ft | 376 kts | 40° |
| 2026-04-30 08:13 | 43.86303 | 87.21097 | 36314 ft | 386 kts | 53° |
| 2026-04-30 08:13 | 43.87470 | 87.24504 | 36285 ft | 396 kts | 71° |
| 2026-04-30 08:13 | 43.87850 | 87.28288 | 36304 ft | 403 kts | 83° |
| 2026-04-30 08:14 | 43.88442 | 87.35955 | 36297 ft | 401 kts | 74° |
| 2026-04-30 08:14 | 43.89853 | 87.43401 | 36299 ft | 399 kts | 69° |
| 2026-04-30 08:15 | 43.91410 | 87.50747 | 36293 ft | 399 kts | 69° |
| 2026-04-30 08:15 | 43.92942 | 87.58115 | 36299 ft | 398 kts | 69° |
| 2026-04-30 08:16 | 43.94471 | 87.65463 | 36299 ft | 398 kts | 70° |
| 2026-04-30 08:16 | 43.96000 | 87.72780 | 36276 ft | 398 kts | 69° |
| 2026-04-30 08:17 | 43.97543 | 87.80151 | 36301 ft | 397 kts | 69° |
| 2026-04-30 08:17 | 43.99085 | 87.87488 | 36299 ft | 397 kts | 69° |
| 2026-04-30 08:18 | 44.00618 | 87.94764 | 36284 ft | 396 kts | 69° |
| 2026-04-30 08:18 | 44.02168 | 88.02124 | 36288 ft | 397 kts | 69° |
| 2026-04-30 08:19 | 44.03704 | 88.09434 | 36287 ft | 397 kts | 69° |
| 2026-04-30 08:19 | 44.05236 | 88.16772 | 36285 ft | 397 kts | 69° |
| 2026-04-30 08:20 | 44.06769 | 88.24116 | 36278 ft | 397 kts | 69° |
| 2026-04-30 08:20 | 44.08300 | 88.31471 | 36274 ft | 397 kts | 69° |
| 2026-04-30 08:21 | 44.09831 | 88.38815 | 36272 ft | 397 kts | 69° |
| 2026-04-30 08:21 | 44.11379 | 88.46153 | 36283 ft | 397 kts | 69° |
| 2026-04-30 08:22 | 44.12941 | 88.53478 | 36276 ft | 396 kts | 68° |
| 2026-04-30 08:22 | 44.14494 | 88.60798 | 36273 ft | 396 kts | 68° |
| 2026-04-30 08:23 | 44.16042 | 88.68108 | 36274 ft | 396 kts | 69° |
| 2026-04-30 08:23 | 44.17591 | 88.75452 | 36271 ft | 398 kts | 69° |
| 2026-04-30 08:24 | 44.19151 | 88.82851 | 36271 ft | 397 kts | 69° |
| 2026-04-30 08:24 | 44.20692 | 88.90176 | 36260 ft | 397 kts | 69° |
| 2026-04-30 08:25 | 44.22245 | 88.97537 | 36259 ft | 397 kts | 69° |
| 2026-04-30 08:25 | 44.23794 | 89.04909 | 36246 ft | 396 kts | 69° |
| 2026-04-30 08:26 | 44.25337 | 89.12254 | 36246 ft | 397 kts | 69° |
| 2026-04-30 08:26 | 44.26886 | 89.19589 | 36218 ft | 396 kts | 69° |
| 2026-04-30 08:27 | 44.28443 | 89.26929 | 36231 ft | 396 kts | 69° |
| 2026-04-30 08:27 | 44.29999 | 89.34285 | 36237 ft | 396 kts | 68° |
| 2026-04-30 08:28 | 44.31555 | 89.41632 | 36230 ft | 397 kts | 69° |
| 2026-04-30 08:28 | 44.33126 | 89.48999 | 36226 ft | 396 kts | 68° |
| 2026-04-30 08:29 | 44.34697 | 89.56331 | 36223 ft | 395 kts | 68° |
| 2026-04-30 08:29 | 44.36262 | 89.63638 | 36224 ft | 395 kts | 68° |
| 2026-04-30 08:30 | 44.37831 | 89.70978 | 36224 ft | 395 kts | 69° |
| 2026-04-30 08:30 | 44.39402 | 89.78307 | 36223 ft | 395 kts | 69° |
| 2026-04-30 08:31 | 44.40979 | 89.85631 | 36217 ft | 395 kts | 69° |
| 2026-04-30 08:31 | 44.42563 | 89.92942 | 36237 ft | 394 kts | 69° |
| 2026-04-30 08:31 | 44.43362 | 89.96603 | 36386 ft | 395 kts | 69° |
| 2026-04-30 08:32 | 44.44161 | 90.00258 | 36297 ft | 393 kts | 69° |
| 2026-04-30 08:32 | 44.44959 | 90.03915 | 36122 ft | 392 kts | 68° |
| 2026-04-30 08:32 | 44.45744 | 90.07540 | 36303 ft | 394 kts | 69° |
| 2026-04-30 08:33 | 44.47337 | 90.14853 | 36244 ft | 393 kts | 69° |
| 2026-04-30 08:33 | 44.48931 | 90.22109 | 36235 ft | 393 kts | 68° |
| 2026-04-30 08:34 | 44.50541 | 90.29423 | 36226 ft | 392 kts | 68° |
| 2026-04-30 08:34 | 44.52144 | 90.36661 | 36229 ft | 391 kts | 68° |
| 2026-04-30 08:35 | 44.53758 | 90.43909 | 36226 ft | 391 kts | 68° |
| 2026-04-30 08:35 | 44.55362 | 90.51144 | 36232 ft | 390 kts | 68° |
| 2026-04-30 08:36 | 44.56971 | 90.58387 | 36235 ft | 391 kts | 68° |
| 2026-04-30 08:36 | 44.58594 | 90.65617 | 36228 ft | 389 kts | 69° |
| 2026-04-30 08:37 | 44.60213 | 90.72852 | 36229 ft | 390 kts | 68° |
| 2026-04-30 08:37 | 44.61834 | 90.80087 | 36237 ft | 389 kts | 69° |
| 2026-04-30 08:38 | 44.63450 | 90.87316 | 36234 ft | 390 kts | 68° |
| 2026-04-30 08:38 | 44.65064 | 90.94517 | 36233 ft | 389 kts | 68° |
| 2026-04-30 08:39 | 44.66700 | 91.01732 | 36234 ft | 389 kts | 68° |
| 2026-04-30 08:39 | 44.68358 | 91.08983 | 36239 ft | 389 kts | 68° |
| 2026-04-30 08:40 | 44.70000 | 91.16167 | 36234 ft | 388 kts | 68° |
| 2026-04-30 08:40 | 44.71643 | 91.23357 | 36235 ft | 388 kts | 68° |
| 2026-04-30 08:41 | 44.73291 | 91.30570 | 36233 ft | 387 kts | 68° |
| 2026-04-30 08:41 | 44.74939 | 91.37719 | 36231 ft | 388 kts | 68° |
| 2026-04-30 08:42 | 44.76616 | 91.44942 | 36237 ft | 388 kts | 68° |
| 2026-04-30 08:42 | 44.78282 | 91.52086 | 36236 ft | 387 kts | 68° |
| 2026-04-30 08:43 | 44.79975 | 91.59263 | 36238 ft | 386 kts | 68° |
| 2026-04-30 08:43 | 44.81649 | 91.66404 | 36232 ft | 387 kts | 68° |
| 2026-04-30 08:44 | 44.83311 | 91.73570 | 36234 ft | 387 kts | 69° |
| 2026-04-30 08:44 | 44.84992 | 91.80719 | 36235 ft | 386 kts | 68° |
| 2026-04-30 08:45 | 44.86688 | 91.87884 | 36233 ft | 385 kts | 68° |
| 2026-04-30 08:45 | 44.88382 | 91.95008 | 36230 ft | 386 kts | 68° |
| 2026-04-30 08:46 | 44.90080 | 92.02143 | 36229 ft | 386 kts | 68° |
| 2026-04-30 08:46 | 44.91789 | 92.09303 | 36227 ft | 386 kts | 68° |
| 2026-04-30 08:47 | 44.93509 | 92.16476 | 36224 ft | 387 kts | 68° |
| 2026-04-30 08:47 | 44.95239 | 92.23624 | 36215 ft | 386 kts | 68° |
| 2026-04-30 08:48 | 44.96985 | 92.30791 | 36202 ft | 386 kts | 68° |
| 2026-04-30 08:48 | 44.98722 | 92.37914 | 36197 ft | 386 kts | 68° |
| 2026-04-30 08:49 | 45.00480 | 92.45068 | 36185 ft | 387 kts | 68° |
| 2026-04-30 08:49 | 45.02252 | 92.52238 | 36189 ft | 387 kts | 68° |
| 2026-04-30 08:50 | 45.04021 | 92.59364 | 36199 ft | 388 kts | 67° |
| 2026-04-30 08:50 | 45.05797 | 92.66524 | 36213 ft | 388 kts | 68° |
| 2026-04-30 08:51 | 45.07590 | 92.73739 | 36222 ft | 389 kts | 68° |
| 2026-04-30 08:51 | 45.09376 | 92.80926 | 36224 ft | 390 kts | 68° |
| 2026-04-30 08:52 | 45.11181 | 92.88128 | 36225 ft | 390 kts | 68° |
| 2026-04-30 08:52 | 45.13020 | 92.95341 | 36219 ft | 389 kts | 68° |
| 2026-04-30 08:53 | 45.14864 | 93.02523 | 36219 ft | 390 kts | 67° |
| 2026-04-30 08:53 | 45.16705 | 93.09710 | 36218 ft | 391 kts | 67° |
| 2026-04-30 08:54 | 45.18553 | 93.16956 | 36219 ft | 391 kts | 67° |
| 2026-04-30 08:54 | 45.20404 | 93.24174 | 36219 ft | 390 kts | 67° |
| 2026-04-30 08:55 | 45.22269 | 93.31381 | 36217 ft | 391 kts | 67° |
| 2026-04-30 08:55 | 45.24126 | 93.38574 | 36222 ft | 391 kts | 67° |
| 2026-04-30 08:56 | 45.25981 | 93.45777 | 36226 ft | 391 kts | 67° |
| 2026-04-30 08:56 | 45.27845 | 93.53008 | 36223 ft | 391 kts | 67° |
| 2026-04-30 08:57 | 45.29703 | 93.60246 | 36218 ft | 392 kts | 67° |
| 2026-04-30 08:57 | 45.31573 | 93.67498 | 36223 ft | 392 kts | 68° |
| 2026-04-30 08:58 | 45.33440 | 93.74748 | 36219 ft | 393 kts | 67° |
| 2026-04-30 08:58 | 45.35329 | 93.82046 | 36225 ft | 393 kts | 67° |
| 2026-04-30 08:58 | 45.36274 | 93.85687 | 36114 ft | 394 kts | 67° |
| 2026-04-30 08:59 | 45.37220 | 93.89321 | 36176 ft | 394 kts | 67° |
| 2026-04-30 08:59 | 45.39124 | 93.96624 | 36217 ft | 394 kts | 67° |
| 2026-04-30 09:00 | 45.41021 | 94.03883 | 36207 ft | 394 kts | 67° |
| 2026-04-30 09:00 | 45.42929 | 94.11172 | 36199 ft | 395 kts | 67° |
| 2026-04-30 09:01 | 45.44854 | 94.18506 | 36193 ft | 395 kts | 67° |
| 2026-04-30 09:01 | 45.46785 | 94.25776 | 36194 ft | 395 kts | 67° |
| 2026-04-30 09:02 | 45.49698 | 94.36696 | 36202 ft | 396 kts | 66° |
| 2026-04-30 09:02 | 45.51643 | 94.44017 | 36209 ft | 395 kts | 67° |
| 2026-04-30 09:03 | 45.53596 | 94.51274 | 36223 ft | 395 kts | 66° |
| 2026-04-30 09:03 | 45.55574 | 94.58595 | 36224 ft | 396 kts | 66° |
| 2026-04-30 09:04 | 45.57553 | 94.65910 | 36228 ft | 396 kts | 67° |
| 2026-04-30 09:04 | 45.59530 | 94.73199 | 36229 ft | 396 kts | 67° |
| 2026-04-30 09:05 | 45.61516 | 94.80526 | 36376 ft | 397 kts | 67° |
| 2026-04-30 09:05 | 45.62514 | 94.84169 | 36114 ft | 394 kts | 67° |
| 2026-04-30 09:05 | 45.63504 | 94.87794 | 36290 ft | 395 kts | 67° |
| 2026-04-30 09:06 | 45.65516 | 94.95116 | 36231 ft | 394 kts | 67° |
| 2026-04-30 09:06 | 45.67524 | 95.02375 | 36217 ft | 393 kts | 67° |
| 2026-04-30 09:07 | 45.69532 | 95.09614 | 36205 ft | 392 kts | 67° |
| 2026-04-30 09:07 | 45.70533 | 95.13226 | 36055 ft | 391 kts | 66° |
| 2026-04-30 09:07 | 45.71524 | 95.16825 | 36129 ft | 392 kts | 66° |
| 2026-04-30 09:08 | 45.73512 | 95.24036 | 36179 ft | 393 kts | 66° |
| 2026-04-30 09:08 | 45.75523 | 95.31290 | 36180 ft | 392 kts | 66° |
| 2026-04-30 09:09 | 45.77550 | 95.38527 | 36190 ft | 392 kts | 66° |
| 2026-04-30 09:09 | 45.79575 | 95.45686 | 36194 ft | 391 kts | 66° |
| 2026-04-30 09:10 | 45.81621 | 95.52901 | 36203 ft | 391 kts | 66° |
| 2026-04-30 09:10 | 45.83654 | 95.60062 | 36201 ft | 391 kts | 66° |
| 2026-04-30 09:11 | 45.85698 | 95.67306 | 36209 ft | 391 kts | 67° |
| 2026-04-30 09:11 | 45.87712 | 95.74484 | 36204 ft | 392 kts | 67° |
| 2026-04-30 09:12 | 45.89756 | 95.81722 | 36190 ft | 391 kts | 66° |
| 2026-04-30 09:12 | 45.91803 | 95.88905 | 36211 ft | 392 kts | 66° |
| 2026-04-30 09:13 | 45.93874 | 95.96146 | 36252 ft | 392 kts | 66° |
| 2026-04-30 09:13 | 45.95938 | 96.03363 | 36234 ft | 392 kts | 66° |
| 2026-04-30 09:14 | 45.97981 | 96.10561 | 36243 ft | 392 kts | 66° |
| 2026-04-30 09:14 | 45.99014 | 96.14204 | 36414 ft | 392 kts | 66° |
| 2026-04-30 09:14 | 46.00025 | 96.17790 | 36310 ft | 390 kts | 66° |
| 2026-04-30 09:15 | 46.02058 | 96.25004 | 36254 ft | 390 kts | 66° |
| 2026-04-30 09:15 | 46.04099 | 96.32190 | 36215 ft | 389 kts | 66° |
| 2026-04-30 09:16 | 46.06166 | 96.39384 | 36210 ft | 389 kts | 66° |
| 2026-04-30 09:16 | 46.08257 | 96.46533 | 36205 ft | 389 kts | 66° |
| 2026-04-30 09:17 | 46.10354 | 96.53680 | 36195 ft | 388 kts | 66° |
| 2026-04-30 09:17 | 46.12481 | 96.60734 | 36196 ft | 388 kts | 65° |
| 2026-04-30 09:18 | 46.14663 | 96.67876 | 36196 ft | 391 kts | 66° |
| 2026-04-30 09:18 | 46.16851 | 96.75029 | 36205 ft | 393 kts | 66° |
| 2026-04-30 09:19 | 46.19053 | 96.82210 | 36211 ft | 393 kts | 66° |
| 2026-04-30 09:19 | 46.21271 | 96.89404 | 36193 ft | 392 kts | 66° |
| 2026-04-30 09:20 | 46.23486 | 96.96595 | 36193 ft | 394 kts | 66° |
| 2026-04-30 09:20 | 46.25702 | 97.03777 | 36205 ft | 393 kts | 66° |
| 2026-04-30 09:21 | 46.27931 | 97.10950 | 36179 ft | 392 kts | 66° |
| 2026-04-30 09:21 | 46.30177 | 97.18139 | 36205 ft | 392 kts | 65° |
| 2026-04-30 09:22 | 46.32414 | 97.25285 | 36205 ft | 393 kts | 65° |
| 2026-04-30 09:22 | 46.34662 | 97.32443 | 36211 ft | 393 kts | 65° |
| 2026-04-30 09:23 | 46.36928 | 97.39639 | 36219 ft | 393 kts | 65° |
| 2026-04-30 09:23 | 46.39196 | 97.46831 | 36217 ft | 393 kts | 65° |
| 2026-04-30 09:24 | 46.41465 | 97.54026 | 36204 ft | 393 kts | 65° |
| 2026-04-30 09:24 | 46.43734 | 97.61217 | 36218 ft | 394 kts | 65° |
| 2026-04-30 09:25 | 46.46008 | 97.68399 | 36223 ft | 393 kts | 66° |
| 2026-04-30 09:25 | 46.48277 | 97.75558 | 36220 ft | 393 kts | 66° |
| 2026-04-30 09:26 | 46.50555 | 97.82721 | 36229 ft | 392 kts | 66° |
| 2026-04-30 09:26 | 46.52840 | 97.89900 | 36214 ft | 394 kts | 65° |
| 2026-04-30 09:27 | 46.55129 | 97.97129 | 36219 ft | 394 kts | 65° |
| 2026-04-30 09:27 | 46.57396 | 98.04330 | 36238 ft | 394 kts | 65° |
| 2026-04-30 09:28 | 46.59670 | 98.11526 | 36219 ft | 395 kts | 65° |
| 2026-04-30 09:28 | 46.61971 | 98.18750 | 36222 ft | 395 kts | 65° |
| 2026-04-30 09:29 | 46.64281 | 98.25974 | 36198 ft | 395 kts | 65° |
| 2026-04-30 09:29 | 46.66604 | 98.33205 | 36215 ft | 396 kts | 65° |
| 2026-04-30 09:30 | 46.68914 | 98.40417 | 36225 ft | 396 kts | 65° |
| 2026-04-30 09:30 | 46.71228 | 98.47665 | 36222 ft | 395 kts | 65° |
| 2026-04-30 09:31 | 46.73542 | 98.54909 | 36205 ft | 396 kts | 65° |
| 2026-04-30 09:31 | 46.75848 | 98.62134 | 36216 ft | 396 kts | 65° |
| 2026-04-30 09:32 | 46.77002 | 98.65752 | 35987 ft | 396 kts | 65° |
| 2026-04-30 09:32 | 46.78166 | 98.69421 | 36123 ft | 398 kts | 65° |
| 2026-04-30 09:32 | 46.80481 | 98.76753 | 36221 ft | 399 kts | 65° |
| 2026-04-30 09:33 | 46.82776 | 98.84049 | 36230 ft | 398 kts | 65° |
| 2026-04-30 09:33 | 46.85089 | 98.91404 | 36248 ft | 398 kts | 65° |
| 2026-04-30 09:34 | 46.87396 | 98.98747 | 36222 ft | 399 kts | 65° |
| 2026-04-30 09:34 | 46.89708 | 99.06059 | 36236 ft | 399 kts | 65° |
| 2026-04-30 09:35 | 46.92037 | 99.13429 | 36245 ft | 399 kts | 65° |
| 2026-04-30 09:35 | 46.94347 | 99.20749 | 36251 ft | 399 kts | 65° |
| 2026-04-30 09:36 | 46.96677 | 99.28140 | 36261 ft | 402 kts | 65° |
| 2026-04-30 09:36 | 46.99007 | 99.35541 | 36271 ft | 401 kts | 65° |
| 2026-04-30 09:37 | 47.01317 | 99.42894 | 36261 ft | 401 kts | 65° |
| 2026-04-30 09:37 | 47.03642 | 99.50281 | 36281 ft | 401 kts | 64° |
| 2026-04-30 09:38 | 47.05978 | 99.57718 | 36280 ft | 401 kts | 64° |
| 2026-04-30 09:38 | 47.08292 | 99.65089 | 36269 ft | 401 kts | 65° |
| 2026-04-30 09:39 | 47.10619 | 99.72511 | 36272 ft | 402 kts | 65° |
| 2026-04-30 09:39 | 47.12975 | 99.79958 | 36245 ft | 402 kts | 65° |
| 2026-04-30 09:40 | 47.15322 | 99.87354 | 36246 ft | 403 kts | 64° |
| 2026-04-30 09:40 | 47.17670 | 99.94782 | 36246 ft | 403 kts | 64° |
| 2026-04-30 09:41 | 47.20020 | 100.02241 | 36249 ft | 403 kts | 64° |
| 2026-04-30 09:41 | 47.22369 | 100.09724 | 36247 ft | 402 kts | 64° |
| 2026-04-30 09:42 | 47.24691 | 100.17133 | 36236 ft | 403 kts | 64° |
| 2026-04-30 09:42 | 47.27033 | 100.24628 | 36217 ft | 403 kts | 64° |
| 2026-04-30 09:43 | 47.29372 | 100.32089 | 36227 ft | 403 kts | 64° |
| 2026-04-30 09:43 | 47.31699 | 100.39535 | 36245 ft | 403 kts | 64° |
| 2026-04-30 09:44 | 47.34034 | 100.47046 | 36264 ft | 402 kts | 64° |
| 2026-04-30 09:44 | 47.36347 | 100.54503 | 36277 ft | 402 kts | 64° |
| 2026-04-30 09:45 | 47.38649 | 100.61934 | 36289 ft | 402 kts | 64° |
| 2026-04-30 09:45 | 47.40972 | 100.69461 | 36303 ft | 403 kts | 64° |
| 2026-04-30 09:46 | 47.43277 | 100.76959 | 36298 ft | 403 kts | 64° |
| 2026-04-30 09:46 | 47.45594 | 100.84473 | 36315 ft | 403 kts | 64° |
| 2026-04-30 09:47 | 47.47899 | 100.91941 | 36330 ft | 402 kts | 64° |
| 2026-04-30 09:47 | 47.50214 | 100.99446 | 36339 ft | 401 kts | 64° |
| 2026-04-30 09:48 | 47.52524 | 101.06939 | 36342 ft | 402 kts | 64° |
| 2026-04-30 09:48 | 47.54830 | 101.14441 | 36319 ft | 402 kts | 64° |
| 2026-04-30 09:49 | 47.57132 | 101.21928 | 36302 ft | 401 kts | 64° |
| 2026-04-30 09:49 | 47.59426 | 101.29416 | 36314 ft | 403 kts | 64° |
| 2026-04-30 09:50 | 47.61730 | 101.36951 | 36317 ft | 403 kts | 63° |
| 2026-04-30 09:50 | 47.64021 | 101.44469 | 36330 ft | 402 kts | 63° |
| 2026-04-30 09:51 | 47.66313 | 101.52011 | 36331 ft | 403 kts | 63° |
| 2026-04-30 09:51 | 47.68626 | 101.59613 | 36334 ft | 403 kts | 63° |
| 2026-04-30 09:52 | 47.70926 | 101.67169 | 36335 ft | 402 kts | 64° |
| 2026-04-30 09:52 | 47.73227 | 101.74731 | 36347 ft | 403 kts | 64° |
| 2026-04-30 09:53 | 47.75507 | 101.82249 | 36336 ft | 402 kts | 64° |
| 2026-04-30 09:53 | 47.77818 | 101.89880 | 36336 ft | 403 kts | 64° |
| 2026-04-30 09:54 | 47.80103 | 101.97440 | 36329 ft | 403 kts | 64° |
| 2026-04-30 09:54 | 47.82398 | 102.05048 | 36325 ft | 403 kts | 64° |
| 2026-04-30 09:55 | 47.84665 | 102.12598 | 36324 ft | 403 kts | 63° |
| 2026-04-30 09:55 | 47.86946 | 102.20223 | 36328 ft | 403 kts | 63° |
| 2026-04-30 09:56 | 47.89202 | 102.27784 | 36323 ft | 403 kts | 63° |
| 2026-04-30 09:56 | 47.91476 | 102.35422 | 36325 ft | 403 kts | 63° |
| 2026-04-30 09:57 | 47.93731 | 102.43003 | 36326 ft | 403 kts | 63° |
| 2026-04-30 09:57 | 47.96008 | 102.50636 | 36330 ft | 403 kts | 63° |